Time;durP1;ratioP1;P1;durP2;ratioP2;P2;SDS_P1;SDS_P2;PMS_P1;PMS_P2;Temp;Humidity;BMP_temperature;BMP_pressure;BME280_temperature;BME280_humidity;BME280_pressure;Samples;Min_cycle;Max_cycle;Signal;HPM_P1;HPM_P2
2023/01/30 00:01:03;;;;;;;27.45;14.68;;;;;;;2.31;100.00;100691.94;4911487;29;20044;-75
2023/01/30 00:03:29;;;;;;;26.85;14.60;;;;;;;2.24;100.00;100677.13;4908284;29;20051;-77
2023/01/30 00:05:56;;;;;;;27.02;14.70;;;;;;;2.24;100.00;100669.38;4928809;29;20054;-76
2023/01/30 00:08:22;;;;;;;23.88;12.40;;;;;;;2.34;100.00;100664.44;4910078;29;20044;-77
2023/01/30 00:10:49;;;;;;;25.73;14.10;;;;;;;2.35;100.00;100642.91;4930021;29;20043;-74
2023/01/30 00:13:17;;;;;;;23.25;14.80;;;;;;;2.41;100.00;100659.47;4911095;29;20057;-74
2023/01/30 00:15:43;;;;;;;27.33;14.65;;;;;;;2.36;100.00;100647.25;4915719;29;20051;-76
2023/01/30 00:18:10;;;;;;;25.55;14.27;;;;;;;2.36;100.00;100663.66;4899238;29;20052;-73
2023/01/30 00:20:37;;;;;;;29.35;15.43;;;;;;;2.39;100.00;100671.47;4930554;29;20034;-76
2023/01/30 00:23:05;;;;;;;26.92;14.50;;;;;;;2.39;100.00;100668.03;4917892;29;20064;-75
2023/01/30 00:25:32;;;;;;;28.67;14.88;;;;;;;2.39;100.00;100676.63;4928719;29;20040;-75
2023/01/30 00:28:01;;;;;;;25.05;13.55;;;;;;;2.34;100.00;100660.13;4915107;29;20051;-77
2023/01/30 00:30:29;;;;;;;25.67;13.80;;;;;;;2.40;100.00;100673.22;4930329;29;20043;-74
2023/01/30 00:32:59;;;;;;;25.20;13.45;;;;;;;2.41;100.00;100679.25;4918693;29;20051;-73
2023/01/30 00:35:28;;;;;;;32.35;14.75;;;;;;;2.51;100.00;100664.84;4933977;29;20044;-76
2023/01/30 00:38:01;;;;;;;24.85;14.50;;;;;;;2.44;100.00;100659.53;4918484;29;20134;-76
2023/01/30 00:40:29;;;;;;;27.80;15.63;;;;;;;2.46;100.00;100649.22;4928656;29;20051;-75
2023/01/30 00:48:27;;;;;;;30.77;15.82;;;;;;;2.41;100.00;100619.81;4927180;29;20036;-75
2023/01/30 00:50:54;;;;;;;28.38;15.45;;;;;;;2.43;100.00;100634.53;4919929;29;20063;-76
2023/01/30 00:53:20;;;;;;;28.20;15.18;;;;;;;2.42;100.00;100630.19;4930780;29;20044;-74
2023/01/30 00:55:47;;;;;;;33.17;17.42;;;;;;;2.41;100.00;100628.47;4930562;29;20649;-75
2023/01/30 00:58:13;;;;;;;31.65;15.57;;;;;;;2.42;100.00;100600.91;4930629;29;20419;-75
2023/01/30 01:00:40;;;;;;;25.80;14.98;;;;;;;2.41;100.00;100615.53;4932272;29;20048;-80
2023/01/30 01:03:06;;;;;;;28.85;16.73;;;;;;;2.39;100.00;100604.28;4933571;29;20495;-74
2023/01/30 01:05:33;;;;;;;31.52;16.75;;;;;;;2.37;100.00;100594.75;4929827;29;20699;-74
2023/01/30 01:07:59;;;;;;;27.73;16.17;;;;;;;2.34;100.00;100600.72;4929352;29;20043;-74
2023/01/30 01:10:26;;;;;;;31.35;17.95;;;;;;;2.29;100.00;100603.22;4919012;29;20524;-76
2023/01/30 01:12:53;;;;;;;30.52;15.95;;;;;;;2.31;100.00;100601.53;4932136;29;20499;-74
2023/01/30 01:15:22;;;;;;;32.58;19.08;;;;;;;2.36;100.00;100605.91;4913535;29;20170;-75
2023/01/30 01:17:49;;;;;;;32.25;17.27;;;;;;;2.35;100.00;100583.50;4919505;29;20066;-77
2023/01/30 01:20:17;;;;;;;33.22;18.40;;;;;;;2.34;100.00;100569.72;4927522;29;20100;-75
2023/01/30 01:22:44;;;;;;;33.75;16.48;;;;;;;2.37;100.00;100576.69;4927834;28;20066;-74
2023/01/30 01:25:11;;;;;;;38.33;19.50;;;;;;;2.35;100.00;100544.75;4935701;29;20047;-76
2023/01/30 01:27:38;;;;;;;29.52;18.33;;;;;;;2.33;100.00;100543.88;4950436;28;20074;-77
2023/01/30 01:30:06;;;;;;;33.50;19.00;;;;;;;2.26;100.00;100548.03;4951383;28;20051;-73
2023/01/30 01:32:33;;;;;;;35.03;18.08;;;;;;;2.19;100.00;100520.28;4954171;28;20491;-76
2023/01/30 01:34:59;;;;;;;35.03;18.85;;;;;;;2.20;100.00;100504.81;4951694;29;20052;-73
2023/01/30 01:37:25;;;;;;;37.63;17.98;;;;;;;2.15;100.00;100488.34;4940315;29;20122;-74
2023/01/30 01:42:39;;;;;;;33.88;18.10;;;;;;;2.21;100.00;100485.91;4952901;28;20134;-74
2023/01/30 01:45:10;;;;;;;32.67;17.00;;;;;;;2.21;100.00;100480.75;4948069;28;20047;-75
2023/01/30 01:47:41;;;;;;;27.38;16.00;;;;;;;2.20;100.00;100481.56;4960409;28;20039;-74
2023/01/30 01:50:15;;;;;;;30.45;16.65;;;;;;;2.24;100.00;100487.69;4938959;29;20046;-74
2023/01/30 01:52:43;;;;;;;24.35;15.43;;;;;;;2.25;100.00;100473.94;4953700;29;20045;-76
2023/01/30 01:55:11;;;;;;;24.63;13.63;;;;;;;2.31;100.00;100445.69;4950294;28;20111;-74
2023/01/30 01:57:54;;;;;;;26.08;15.45;;;;;;;2.39;100.00;100459.63;4952060;29;20110;-78
2023/01/30 02:00:22;;;;;;;27.50;13.82;;;;;;;2.43;100.00;100470.91;4934040;29;20054;-75
2023/01/30 02:02:58;;;;;;;26.55;14.40;;;;;;;2.54;100.00;100471.97;4950901;29;20549;-74
2023/01/30 02:05:30;;;;;;;25.52;14.65;;;;;;;2.63;100.00;100446.34;4938573;29;20079;-74
2023/01/30 02:08:12;;;;;;;23.27;12.02;;;;;;;2.68;100.00;100451.59;4958844;28;20112;-73
2023/01/30 02:11:06;;;;;;;23.17;13.65;;;;;;;2.77;100.00;100449.19;4933483;29;20043;-73
2023/01/30 02:13:33;;;;;;;23.45;14.02;;;;;;;2.84;100.00;100450.16;4943508;29;20043;-75
2023/01/30 02:16:02;;;;;;;27.25;14.77;;;;;;;2.84;100.00;100446.72;4938856;29;20047;-74
2023/01/30 02:18:31;;;;;;;30.00;15.10;;;;;;;2.89;100.00;100437.34;4936803;29;20131;-75
2023/01/30 02:21:22;;;;;;;22.88;13.57;;;;;;;2.92;100.00;100440.88;4939704;29;20043;-74
2023/01/30 02:24:16;;;;;;;28.60;14.82;;;;;;;2.90;100.00;100452.88;4946593;28;20067;-74
2023/01/30 02:27:14;;;;;;;24.10;13.77;;;;;;;2.96;100.00;100446.97;4950252;28;20038;-74
2023/01/30 02:30:16;;;;;;;25.20;14.00;;;;;;;2.97;100.00;100428.00;4949450;28;20046;-75
2023/01/30 02:33:33;;;;;;;25.95;14.23;;;;;;;2.96;100.00;100424.56;4938767;28;20055;-74
2023/01/30 02:36:21;;;;;;;29.33;17.08;;;;;;;2.98;100.00;100416.81;4947929;28;20070;-74
2023/01/30 02:38:54;;;;;;;29.05;14.57;;;;;;;3.00;100.00;100424.59;4954312;28;20046;-74
2023/01/30 02:41:55;;;;;;;27.77;15.10;;;;;;;3.00;100.00;100407.41;4945050;28;20126;-74
2023/01/30 02:44:33;;;;;;;32.80;17.88;;;;;;;3.02;100.00;100394.47;4951980;28;20470;-76
2023/01/30 02:47:14;;;;;;;30.40;15.43;;;;;;;3.05;100.00;100386.78;4953218;28;20051;-74
2023/01/30 02:49:48;;;;;;;28.20;15.20;;;;;;;3.06;100.00;100375.59;4922600;29;20049;-75
2023/01/30 02:52:16;;;;;;;29.98;15.68;;;;;;;3.06;100.00;100376.44;4947133;28;20035;-75
2023/01/30 02:54:42;;;;;;;28.27;14.93;;;;;;;3.07;100.00;100359.22;4948037;28;20098;-74
2023/01/30 02:57:24;;;;;;;25.85;15.43;;;;;;;3.16;100.00;100361.97;4949845;28;20117;-77
2023/01/30 02:59:59;;;;;;;26.90;16.00;;;;;;;3.21;100.00;100365.50;4951019;28;20040;-78
2023/01/30 03:02:42;;;;;;;26.13;15.00;;;;;;;3.26;100.00;100358.69;4950436;29;20546;-75
2023/01/30 03:05:35;;;;;;;31.65;15.82;;;;;;;3.30;100.00;100357.88;4949785;29;20043;-74
2023/01/30 03:08:20;;;;;;;28.23;14.87;;;;;;;3.33;100.00;100349.31;4936172;29;20110;-75
2023/01/30 03:11:04;;;;;;;28.25;15.10;;;;;;;3.37;100.00;100345.06;4953069;28;20043;-77
2023/01/30 03:13:55;;;;;;;35.25;16.83;;;;;;;3.35;100.00;100349.31;4952416;29;20043;-76
2023/01/30 03:16:36;;;;;;;25.52;14.30;;;;;;;3.37;100.00;100347.66;4936566;29;20055;-75
2023/01/30 03:19:05;;;;;;;27.58;15.60;;;;;;;3.41;100.00;100341.66;4929225;29;20447;-75
2023/01/30 03:21:33;;;;;;;29.80;17.45;;;;;;;3.43;100.00;100339.97;4954214;28;20063;-75
2023/01/30 03:23:59;;;;;;;34.05;17.77;;;;;;;3.41;100.00;100327.00;4954100;28;20557;-75
2023/01/30 03:26:35;;;;;;;30.35;16.83;;;;;;;3.37;100.00;100317.44;4939104;28;20526;-79
2023/01/30 03:29:02;;;;;;;30.38;16.70;;;;;;;3.35;100.00;100321.75;4953015;28;20766;-78
2023/01/30 03:31:28;;;;;;;31.92;19.80;;;;;;;3.29;100.00;100317.34;4950334;29;20047;-74
2023/01/30 03:33:55;;;;;;;32.70;17.90;;;;;;;3.25;100.00;100310.38;4930136;29;20043;-75
2023/01/30 03:36:21;;;;;;;30.10;17.75;;;;;;;3.24;100.00;100302.59;4949086;29;20051;-75
2023/01/30 03:38:48;;;;;;;31.58;16.83;;;;;;;3.23;100.00;100306.88;4955221;28;20051;-74
2023/01/30 03:41:14;;;;;;;32.83;18.67;;;;;;;3.16;100.00;100299.03;4925298;29;20406;-83
2023/01/30 03:43:41;;;;;;;31.58;18.58;;;;;;;3.14;100.00;100310.22;4950355;29;20039;-75
2023/01/30 03:46:07;;;;;;;36.75;18.67;;;;;;;3.10;100.00;100298.09;4948771;28;20482;-75
2023/01/30 03:48:34;;;;;;;29.77;17.80;;;;;;;3.12;100.00;100288.63;4955711;28;20047;-75
2023/01/30 03:51:00;;;;;;;29.05;17.70;;;;;;;3.14;100.00;100293.81;4956847;28;20585;-75
2023/01/30 03:53:27;;;;;;;29.92;16.17;;;;;;;3.21;100.00;100277.56;4944178;28;20108;-76
2023/01/30 03:55:53;;;;;;;36.47;18.58;;;;;;;3.23;100.00;100293.09;4951316;28;20047;-75
2023/01/30 03:58:20;;;;;;;27.67;15.35;;;;;;;3.22;100.00;100286.16;4948591;28;20039;-81
2023/01/30 04:00:47;;;;;;;26.60;15.50;;;;;;;3.34;100.00;100282.91;4952394;28;20047;-78
2023/01/30 04:03:14;;;;;;;28.45;13.63;;;;;;;3.34;100.00;100282.91;4936079;29;20343;-74
2023/01/30 04:05:43;;;;;;;25.48;15.43;;;;;;;3.42;100.00;100266.63;4953870;28;20110;-75
2023/01/30 04:08:10;;;;;;;33.30;17.15;;;;;;;3.42;100.00;100264.06;4954716;28;20039;-75
2023/01/30 04:10:37;;;;;;;22.70;13.98;;;;;;;3.42;100.00;100268.38;4950200;28;20451;-73
2023/01/30 04:13:03;;;;;;;27.67;15.07;;;;;;;3.42;100.00;100252.84;4951747;28;20122;-74
2023/01/30 04:15:30;;;;;;;25.67;15.80;;;;;;;3.45;100.00;100256.31;4952570;28;20047;-73
2023/01/30 04:17:56;;;;;;;28.00;14.30;;;;;;;3.46;100.00;100271.00;4943298;28;20043;-73
2023/01/30 04:20:23;;;;;;;21.35;13.25;;;;;;;3.42;100.00;100261.47;4955488;28;20043;-76
2023/01/30 04:22:50;;;;;;;22.70;13.65;;;;;;;3.46;100.00;100254.63;4952510;28;20062;-78
2023/01/30 04:25:16;;;;;;;23.58;12.75;;;;;;;3.45;100.00;100255.47;4949899;28;20043;-77
2023/01/30 04:27:44;;;;;;;23.17;12.30;;;;;;;3.44;100.00;100241.66;4951366;28;20051;-74
2023/01/30 04:30:11;;;;;;;19.05;11.07;;;;;;;3.45;100.00;100232.19;4950800;28;20043;-78
2023/01/30 04:32:37;;;;;;;20.38;11.65;;;;;;;3.42;100.00;100233.00;4943941;28;20035;-75
2023/01/30 04:35:04;;;;;;;19.08;10.55;;;;;;;3.50;100.00;100221.91;4949524;29;20069;-77
2023/01/30 04:37:30;;;;;;;18.15;10.68;;;;;;;3.49;100.00;100231.34;4952883;28;20035;-74
2023/01/30 04:40:00;;;;;;;18.73;10.82;;;;;;;3.48;100.00;100235.69;4950990;29;20047;-76
2023/01/30 04:42:27;;;;;;;21.65;11.23;;;;;;;3.48;100.00;100230.50;4920658;29;20063;-76
2023/01/30 04:44:53;;;;;;;17.52;9.27;;;;;;;3.56;100.00;100240.06;4951599;28;20115;-74
2023/01/30 04:47:20;;;;;;;16.10;8.57;;;;;;;3.68;100.00;100224.72;4954878;28;20494;-73
2023/01/30 04:49:46;;;;;;;14.02;9.27;;;;;;;3.68;100.00;100221.22;4934945;28;20055;-76
2023/01/30 04:52:13;;;;;;;14.95;9.13;;;;;;;3.64;100.00;100221.22;4940479;28;20059;-77
2023/01/30 04:54:39;;;;;;;12.90;8.02;;;;;;;3.66;100.00;100223.81;4957826;28;20055;-77
2023/01/30 04:57:06;;;;;;;12.50;8.30;;;;;;;3.64;100.00;100223.78;4944628;28;20059;-77
2023/01/30 04:59:35;;;;;;;11.50;7.85;;;;;;;3.77;100.00;100209.28;4947974;28;20039;-76
2023/01/30 05:02:02;;;;;;;13.65;7.35;;;;;;;3.70;100.00;100217.81;4936547;29;20175;-77
2023/01/30 05:04:28;;;;;;;11.80;7.57;;;;;;;3.68;100.00;100198.81;4939515;29;20269;-76
2023/01/30 05:06:55;;;;;;;14.80;8.23;;;;;;;3.72;100.00;100212.69;4939273;29;20043;-76
2023/01/30 05:09:21;;;;;;;12.32;8.00;;;;;;;3.81;100.00;100217.97;4945737;29;20049;-76
2023/01/30 05:11:47;;;;;;;14.98;8.55;;;;;;;3.87;100.00;100201.63;4953512;29;20043;-77
2023/01/30 05:14:14;;;;;;;12.45;6.70;;;;;;;3.87;100.00;100183.50;4946440;29;20039;-79
2023/01/30 05:16:40;;;;;;;10.60;7.18;;;;;;;3.94;100.00;100195.66;4935821;28;20062;-84
2023/01/30 05:19:07;;;;;;;12.23;8.15;;;;;;;3.92;100.00;100202.53;4873405;28;20056;-77
2023/01/30 05:21:34;;;;;;;10.50;6.50;;;;;;;3.93;100.00;100202.53;4920969;28;21045;-75
2023/01/30 05:24:00;;;;;;;11.68;7.32;;;;;;;3.95;100.00;100194.78;4916958;29;20537;-79
2023/01/30 05:26:27;;;;;;;12.27;7.00;;;;;;;4.10;100.00;100194.09;4939822;28;20039;-75
2023/01/30 05:28:55;;;;;;;11.82;6.32;;;;;;;4.19;100.00;100203.69;4932061;29;20051;-78
2023/01/30 05:31:23;;;;;;;8.80;6.32;;;;;;;4.11;100.00;100196.69;4945624;29;20043;-75
2023/01/30 05:33:51;;;;;;;7.57;5.82;;;;;;;4.16;100.00;100208.81;4912752;29;20055;-76
2023/01/30 05:36:21;;;;;;;7.45;5.68;;;;;;;4.09;100.00;100208.78;4933375;28;20093;-77
2023/01/30 05:38:47;;;;;;;8.40;5.70;;;;;;;4.06;100.00;100213.06;4945747;29;20422;-79
2023/01/30 05:41:18;;;;;;;10.60;5.78;;;;;;;4.02;100.00;100225.09;4943126;29;20035;-76
2023/01/30 05:43:50;;;;;;;9.85;6.10;;;;;;;3.99;100.00;100201.75;4932400;29;20399;-80
2023/01/30 05:46:16;;;;;;;10.98;6.85;;;;;;;4.01;100.00;100213.00;4948952;29;20047;-75
2023/01/30 05:48:43;;;;;;;7.18;5.50;;;;;;;4.02;100.00;100204.38;4947456;28;20031;-76
2023/01/30 05:51:27;;;;;;;10.98;6.30;;;;;;;4.09;100.00;100213.97;4922555;28;20639;-81
2023/01/30 05:53:53;;;;;;;9.48;5.82;;;;;;;4.08;100.00;100216.50;4931860;29;20044;-76
2023/01/30 05:56:21;;;;;;;9.57;5.70;;;;;;;4.03;100.00;100205.22;4947983;28;20047;-75
2023/01/30 05:58:52;;;;;;;8.85;6.03;;;;;;;4.19;100.00;100207.13;4930415;29;20039;-77
2023/01/30 06:01:19;;;;;;;12.10;6.38;;;;;;;4.16;100.00;100198.47;4934286;29;20058;-79
2023/01/30 06:03:46;;;;;;;12.52;6.78;;;;;;;4.13;100.00;100205.38;4949104;28;20058;-78
2023/01/30 06:06:13;;;;;;;10.82;7.30;;;;;;;4.15;100.00;100184.66;4952769;28;20036;-77
2023/01/30 06:08:40;;;;;;;9.20;5.95;;;;;;;4.10;100.00;100192.34;4928744;29;20054;-75
2023/01/30 06:11:10;;;;;;;9.13;5.30;;;;;;;4.11;100.00;100195.84;4940347;28;20047;-78
2023/01/30 06:13:37;;;;;;;12.02;6.20;;;;;;;4.02;100.00;100203.53;4921940;28;20055;-78
2023/01/30 06:16:05;;;;;;;11.77;6.60;;;;;;;4.06;100.00;100197.50;4927942;29;20039;-75
2023/01/30 06:18:31;;;;;;;8.38;4.20;;;;;;;4.02;100.00;100201.78;4947747;28;20397;-77
2023/01/30 06:20:58;;;;;;;12.63;4.47;;;;;;;3.96;100.00;100188.75;4930715;29;20047;-77
2023/01/30 06:23:24;;;;;;;7.07;4.40;;;;;;;3.99;100.00;100194.00;4947330;28;20387;-77
2023/01/30 06:25:52;;;;;;;10.57;5.07;;;;;;;3.98;100.00;100206.06;4909701;28;20039;-80
2023/01/30 06:28:22;;;;;;;7.10;5.03;;;;;;;4.00;100.00;100213.84;4935865;28;20043;-81
2023/01/30 06:30:49;;;;;;;8.60;6.00;;;;;;;4.06;100.00;100200.09;4902878;28;21466;-80
2023/01/30 06:33:16;;;;;;;9.65;5.90;;;;;;;4.18;100.00;100209.72;4932279;28;20047;-77
2023/01/30 06:35:44;;;;;;;9.70;5.00;;;;;;;4.28;100.00;100214.13;4921452;28;20047;-80
2023/01/30 06:38:13;;;;;;;13.77;8.10;;;;;;;4.30;100.00;100215.00;4931498;28;20497;-76
2023/01/30 06:40:41;;;;;;;11.82;8.02;;;;;;;4.32;100.00;100231.44;4934406;28;20047;-80
2023/01/30 06:43:10;;;;;;;12.07;5.35;;;;;;;4.35;100.00;100228.88;4910072;28;20066;-78
2023/01/30 06:45:36;;;;;;;10.02;6.45;;;;;;;4.32;100.00;100239.22;4940615;28;20138;-78
2023/01/30 06:48:03;;;;;;;11.57;6.72;;;;;;;4.29;100.00;100246.97;4921805;29;21157;-76
2023/01/30 06:50:30;;;;;;;8.75;5.45;;;;;;;4.27;100.00;100249.53;4942523;28;20490;-78
2023/01/30 06:52:58;;;;;;;11.43;5.50;;;;;;;4.29;100.00;100239.19;4943511;28;20047;-76
2023/01/30 06:55:27;;;;;;;7.43;4.15;;;;;;;4.21;100.00;100230.47;4945177;28;20061;-78
2023/01/30 06:58:12;;;;;;;7.75;4.00;;;;;;;4.03;100.00;100242.38;4948633;28;20048;-75
2023/01/30 07:00:41;;;;;;;8.57;5.10;;;;;;;3.87;100.00;100225.81;4945138;28;20643;-76
2023/01/30 07:03:16;;;;;;;8.80;4.70;;;;;;;3.72;100.00;100243.75;4929839;28;20058;-82
2023/01/30 07:05:45;;;;;;;10.38;5.05;;;;;;;3.63;100.00;100244.50;4944958;28;20046;-78
2023/01/30 07:08:13;;;;;;;11.35;5.35;;;;;;;3.70;100.00;100248.88;4930511;28;20043;-84
2023/01/30 07:10:41;;;;;;;12.90;5.03;;;;;;;3.67;100.00;100250.59;4919987;29;20047;-80
2023/01/30 07:13:07;;;;;;;9.73;4.15;;;;;;;3.56;100.00;100232.31;4937054;28;20079;-76
2023/01/30 07:15:34;;;;;;;10.07;4.07;;;;;;;3.52;100.00;100243.47;4946334;28;20479;-78
2023/01/30 07:18:01;;;;;;;9.30;3.75;;;;;;;3.46;100.00;100250.31;4948228;28;20049;-78
2023/01/30 07:20:29;;;;;;;7.82;2.97;;;;;;;3.43;100.00;100257.19;4934848;28;20039;-75
2023/01/30 07:22:56;;;;;;;7.53;2.72;;;;;;;3.43;100.00;100249.41;4945689;28;20059;-76
2023/01/30 07:25:25;;;;;;;7.85;2.97;;;;;;;3.39;100.00;100247.59;4931772;29;20086;-75
2023/01/30 07:27:55;;;;;;;9.32;3.00;;;;;;;3.44;100.00;100254.59;4944241;28;20085;-77
2023/01/30 07:30:21;;;;;;;7.05;2.95;;;;;;;3.39;100.00;100253.66;4921049;29;20549;-79
2023/01/30 07:32:53;;;;;;;14.48;3.55;;;;;;;3.41;100.00;100248.50;4939971;28;20062;-76
2023/01/30 07:35:21;;;;;;;14.45;4.00;;;;;;;3.38;100.00;100246.75;4931523;29;20106;-76
2023/01/30 07:37:48;;;;;;;9.57;2.50;;;;;;;3.39;100.00;100239.84;4942869;28;20486;-77
2023/01/30 07:40:16;;;;;;;14.80;3.45;;;;;;;3.48;100.00;100233.09;4931273;29;20043;-76
2023/01/30 07:42:42;;;;;;;7.93;2.45;;;;;;;3.43;100.00;100233.88;4942543;28;20046;-77
2023/01/30 07:45:10;;;;;;;11.70;3.10;;;;;;;3.50;100.00;100233.09;4929211;28;20122;-77
2023/01/30 07:47:36;;;;;;;8.68;2.20;;;;;;;3.62;100.00;100234.97;4929744;28;20051;-76
2023/01/30 07:50:03;;;;;;;9.63;2.97;;;;;;;3.72;100.00;100231.66;4940805;28;20043;-76
2023/01/30 07:52:30;;;;;;;15.32;2.35;;;;;;;3.79;100.00;100222.25;4932274;29;20039;-77
2023/01/30 07:54:56;;;;;;;12.27;2.05;;;;;;;3.84;100.00;100230.94;4931460;29;20055;-77
2023/01/30 07:57:23;;;;;;;9.13;2.40;;;;;;;3.87;100.00;100241.34;4915100;28;20066;-76
2023/01/30 07:59:49;;;;;;;10.88;2.30;;;;;;;3.78;100.00;100225.66;4943316;28;20050;-82
2023/01/30 08:02:18;;;;;;;10.25;2.70;;;;;;;3.83;100.00;100239.53;4944589;29;20486;-76
2023/01/30 08:04:44;;;;;;;9.00;2.30;;;;;;;3.75;100.00;100239.44;4927092;28;20047;-78
2023/01/30 08:07:11;;;;;;;5.78;2.05;;;;;;;3.82;100.00;100235.25;4929575;29;20039;-76
2023/01/30 08:09:37;;;;;;;10.55;2.30;;;;;;;3.88;100.00;100240.47;4943570;28;20054;-78
2023/01/30 08:12:04;;;;;;;10.18;2.45;;;;;;;3.95;100.00;100247.47;4927466;29;20039;-77
2023/01/30 08:14:34;;;;;;;10.05;2.30;;;;;;;4.08;100.00;100256.25;4943832;28;20486;-79
2023/01/30 08:17:00;;;;;;;6.13;2.88;;;;;;;4.32;100.00;100265.13;4930601;29;20051;-76
2023/01/30 08:19:27;;;;;;;16.63;3.58;;;;;;;4.40;100.00;100267.81;4941649;28;20846;-83
2023/01/30 08:21:53;;;;;;;17.33;4.88;;;;;;;4.41;100.00;100279.91;4941724;28;20057;-76
2023/01/30 08:24:20;;;;;;;13.00;2.58;;;;;;;4.46;100.00;100280.84;4925738;29;20476;-76
2023/01/30 08:26:48;;;;;;;8.20;2.50;;;;;;;4.39;100.00;100277.28;4945426;28;20090;-84
2023/01/30 08:29:15;;;;;;;11.15;2.28;;;;;;;4.40;100.00;100280.75;4940038;28;20051;-79
2023/01/30 08:31:42;;;;;;;7.35;2.25;;;;;;;4.50;100.00;100280.00;4933735;28;20119;-83
2023/01/30 08:34:09;;;;;;;12.88;3.60;;;;;;;4.58;100.00;100282.69;4931093;28;21439;-77
2023/01/30 08:36:35;;;;;;;7.50;1.80;;;;;;;4.64;100.00;100268.03;4926898;28;20510;-77
2023/01/30 08:39:02;;;;;;;9.52;2.05;;;;;;;4.70;100.00;100272.41;4944869;29;20046;-76
2023/01/30 08:41:28;;;;;;;15.52;4.40;;;;;;;4.69;100.00;100275.00;4944127;28;20091;-80
2023/01/30 08:43:55;;;;;;;9.57;3.22;;;;;;;4.73;100.00;100279.34;4915395;29;20064;-75
2023/01/30 08:46:21;;;;;;;14.95;2.53;;;;;;;4.76;100.00;100276.78;4932911;28;20051;-82
2023/01/30 08:48:48;;;;;;;11.43;2.63;;;;;;;4.73;100.00;100272.44;4938103;28;20435;-76
2023/01/30 08:51:15;;;;;;;12.50;2.92;;;;;;;4.74;100.00;100284.53;4931471;28;20491;-78
2023/01/30 08:53:41;;;;;;;6.18;2.25;;;;;;;4.77;100.00;100284.59;4931714;28;20470;-77
2023/01/30 08:56:08;;;;;;;15.02;3.00;;;;;;;4.75;100.00;100275.06;4926702;29;20091;-77
2023/01/30 08:58:34;;;;;;;13.63;3.55;;;;;;;4.82;100.00;100276.81;4942276;28;20099;-80
2023/01/30 09:01:07;;;;;;;17.33;2.72;;;;;;;4.87;100.00;100269.09;4942412;28;20043;-77
2023/01/30 09:03:34;;;;;;;11.67;3.13;;;;;;;4.91;100.00;100276.91;4930938;29;20098;-77
2023/01/30 09:06:01;;;;;;;9.48;2.83;;;;;;;4.96;100.00;100282.13;4942404;28;20294;-76
2023/01/30 09:08:27;;;;;;;19.63;3.97;;;;;;;4.93;100.00;100270.00;4929780;28;20040;-79
2023/01/30 09:11:01;;;;;;;12.52;2.45;;;;;;;5.05;100.00;100289.97;4944374;28;20055;-79
2023/01/30 09:13:29;;;;;;;11.18;2.55;;;;;;;5.22;96.07;100284.06;4915805;28;20055;-80
2023/01/30 09:15:57;;;;;;;7.90;2.08;;;;;;;5.23;97.02;100283.22;4945299;28;20146;-80
2023/01/30 09:18:25;;;;;;;15.07;2.88;;;;;;;5.24;96.63;100265.06;4929133;29;20078;-78
2023/01/30 09:20:51;;;;;;;9.20;2.72;;;;;;;5.22;96.22;100271.94;4945384;28;20103;-77
2023/01/30 09:23:18;;;;;;;8.68;3.25;;;;;;;5.18;95.59;100274.53;4946754;28;20056;-80
2023/01/30 09:25:45;;;;;;;18.25;3.03;;;;;;;5.11;96.76;100281.38;4948803;28;20051;-81
2023/01/30 09:28:12;;;;;;;12.20;2.20;;;;;;;5.16;96.47;100276.22;4937101;28;20150;-77
2023/01/30 09:30:38;;;;;;;8.23;2.80;;;;;;;5.20;96.20;100280.56;4923792;29;20126;-80
2023/01/30 09:33:05;;;;;;;11.73;3.65;;;;;;;5.23;95.97;100265.91;4927995;29;20062;-76
2023/01/30 09:35:31;;;;;;;18.92;3.30;;;;;;;5.26;96.13;100273.69;4949128;28;20047;-81
2023/01/30 09:37:59;;;;;;;13.13;3.22;;;;;;;5.42;94.78;100266.91;4931228;28;20055;-77
2023/01/30 09:40:32;;;;;;;10.32;3.03;;;;;;;5.53;94.48;100269.53;4917444;29;20082;-78
2023/01/30 09:43:12;;;;;;;6.25;2.45;;;;;;;5.59;92.29;100279.97;4918741;29;20058;-79
2023/01/30 09:46:08;;;;;;;13.32;2.67;;;;;;;5.67;91.87;100272.22;4918411;28;20055;-76
2023/01/30 09:48:59;;;;;;;6.35;2.85;;;;;;;5.72;91.87;100275.72;4937462;28;20051;-84
2023/01/30 09:52:00;;;;;;;13.80;2.42;;;;;;;5.75;90.58;100280.03;4934185;29;20043;-77
2023/01/30 09:54:35;;;;;;;6.25;2.22;;;;;;;5.76;91.14;100277.47;4946691;28;20036;-82
2023/01/30 09:57:14;;;;;;;13.73;2.50;;;;;;;5.90;89.65;100272.31;4931826;28;20051;-76
2023/01/30 09:59:51;;;;;;;14.00;2.80;;;;;;;5.82;88.23;100275.75;4924911;28;20519;-77
2023/01/30 10:02:35;;;;;;;11.10;2.35;;;;;;;5.74;89.45;100276.56;4912497;29;20046;-81
2023/01/30 10:05:02;;;;;;;12.20;3.15;;;;;;;5.70;89.68;100274.81;4919171;28;20054;-78
2023/01/30 10:07:57;;;;;;;18.25;4.88;;;;;;;5.77;88.69;100273.13;4931140;28;20122;-76
2023/01/30 10:10:47;;;;;;;16.75;2.47;;;;;;;5.93;88.24;100274.03;4936177;29;20471;-77
2023/01/30 10:13:44;;;;;;;10.88;2.13;;;;;;;5.98;88.72;100261.97;4951744;28;20118;-77
2023/01/30 10:16:37;;;;;;;13.68;2.70;;;;;;;5.97;87.49;100280.97;4952534;28;20058;-79
2023/01/30 10:19:31;;;;;;;16.30;2.78;;;;;;;6.10;86.09;100253.34;4940086;29;20039;-76
2023/01/30 10:22:16;;;;;;;24.07;3.20;;;;;;;6.17;86.64;100275.91;4954293;28;20047;-76
2023/01/30 10:25:20;;;;;;;10.82;1.95;;;;;;;6.37;84.09;100277.69;4949171;29;20314;-77
2023/01/30 10:28:03;;;;;;;14.35;3.00;;;;;;;6.17;84.96;100272.44;4936822;29;20039;-78
2023/01/30 10:30:33;;;;;;;13.25;2.53;;;;;;;6.11;85.68;100266.38;4949088;28;20047;-80
2023/01/30 10:33:21;;;;;;;11.07;2.35;;;;;;;6.13;86.17;100264.63;4936073;29;20044;-75
2023/01/30 10:36:02;;;;;;;10.85;2.65;;;;;;;5.98;85.63;100264.56;4951564;29;20077;-78
2023/01/30 10:38:44;;;;;;;10.48;2.95;;;;;;;5.91;86.37;100236.81;4937120;29;20046;-76
2023/01/30 10:41:34;;;;;;;8.90;2.63;;;;;;;5.85;86.81;100254.97;4947777;29;20091;-79
2023/01/30 10:44:11;;;;;;;15.18;2.60;;;;;;;5.85;87.47;100236.78;4951520;28;20545;-78
2023/01/30 10:47:08;;;;;;;11.35;2.78;;;;;;;5.78;87.87;100228.09;4936066;28;20054;-77
2023/01/30 10:49:47;;;;;;;17.98;3.00;;;;;;;5.69;88.06;100235.88;4936474;29;20126;-76
2023/01/30 10:52:27;;;;;;;13.13;2.65;;;;;;;5.59;87.62;100222.84;4938869;29;20181;-77
2023/01/30 10:55:13;;;;;;;12.75;2.60;;;;;;;5.60;88.21;100229.75;4944930;28;20047;-76
2023/01/30 10:57:55;;;;;;;15.90;3.25;;;;;;;5.85;87.33;100229.00;4949583;28;20039;-82
2023/01/30 11:00:35;;;;;;;17.55;3.00;;;;;;;6.08;85.28;100245.56;4950399;28;20403;-76
2023/01/30 11:03:45;;;;;;;11.95;2.65;;;;;;;6.21;84.81;100243.00;4954351;28;20118;-77
2023/01/30 11:06:16;;;;;;;12.40;2.55;;;;;;;6.22;85.57;100244.72;4937998;28;20107;-80
2023/01/30 11:08:43;;;;;;;8.00;2.80;;;;;;;6.19;86.36;100245.59;4936554;29;20050;-76
2023/01/30 11:11:41;;;;;;;12.45;2.60;;;;;;;6.15;86.89;100258.56;4927723;28;20039;-76
2023/01/30 11:14:10;;;;;;;20.67;2.75;;;;;;;6.27;86.90;100259.47;4960855;28;20044;-76
2023/01/30 11:16:53;;;;;;;15.00;2.95;;;;;;;6.32;87.00;100250.81;4935706;29;20094;-77
2023/01/30 11:19:32;;;;;;;13.15;2.83;;;;;;;6.36;87.74;100253.44;4955780;28;20454;-76
2023/01/30 11:22:05;;;;;;;12.30;2.80;;;;;;;6.10;87.60;100241.25;4948393;28;21248;-76
2023/01/30 11:24:44;;;;;;;12.90;2.90;;;;;;;5.80;91.17;100229.84;4934718;28;20093;-77
2023/01/30 11:27:23;;;;;;;10.88;2.78;;;;;;;5.52;93.85;100215.03;4940724;29;20055;-78
2023/01/30 11:29:51;;;;;;;16.40;3.00;;;;;;;5.27;96.58;100231.31;4948298;28;20042;-77
2023/01/30 11:32:29;;;;;;;14.68;3.80;;;;;;;5.36;97.21;100229.63;4951099;29;20071;-80
2023/01/30 11:35:07;;;;;;;10.85;2.47;;;;;;;5.45;92.77;100232.31;4919882;29;20550;-76
2023/01/30 11:37:36;;;;;;;17.05;3.95;;;;;;;5.67;92.55;100222.88;4932077;29;20640;-77
2023/01/30 11:40:29;;;;;;;8.95;1.92;;;;;;;6.10;89.21;100222.16;4951623;28;20102;-76
2023/01/30 11:43:05;;;;;;;10.00;2.72;;;;;;;6.19;88.09;100229.13;4946659;28;20039;-77
2023/01/30 11:45:42;;;;;;;12.20;2.60;;;;;;;6.36;89.40;100204.03;4932366;29;20070;-76